sensor_id;sensor_type;location;lat;lon;timestamp;temperature;humidity
14798;DHT22;7490;63.708;20.368;2022-10-22T00:01:14;8.50;90.90
14798;DHT22;7490;63.708;20.368;2022-10-22T00:03:40;8.50;90.90
14798;DHT22;7490;63.708;20.368;2022-10-22T00:06:06;8.50;90.90
14798;DHT22;7490;63.708;20.368;2022-10-22T00:08:32;8.50;90.80
14798;DHT22;7490;63.708;20.368;2022-10-22T00:10:57;8.50;90.70
14798;DHT22;7490;63.708;20.368;2022-10-22T00:13:23;8.50;90.60
14798;DHT22;7490;63.708;20.368;2022-10-22T00:15:49;8.50;90.60
14798;DHT22;7490;63.708;20.368;2022-10-22T00:18:15;8.40;90.50
14798;DHT22;7490;63.708;20.368;2022-10-22T00:20:41;8.40;90.50
14798;DHT22;7490;63.708;20.368;2022-10-22T00:23:07;8.40;90.60
14798;DHT22;7490;63.708;20.368;2022-10-22T00:25:34;8.40;90.60
14798;DHT22;7490;63.708;20.368;2022-10-22T00:28:01;8.10;90.50
14798;DHT22;7490;63.708;20.368;2022-10-22T00:30:27;8.30;90.60
14798;DHT22;7490;63.708;20.368;2022-10-22T00:32:53;8.40;90.70
14798;DHT22;7490;63.708;20.368;2022-10-22T00:35:19;8.40;90.70
14798;DHT22;7490;63.708;20.368;2022-10-22T00:37:44;8.70;90.80
14798;DHT22;7490;63.708;20.368;2022-10-22T00:40:11;8.40;90.70
14798;DHT22;7490;63.708;20.368;2022-10-22T00:42:37;8.50;90.70
14798;DHT22;7490;63.708;20.368;2022-10-22T00:47:53;8.50;90.70
14798;DHT22;7490;63.708;20.368;2022-10-22T00:53:14;8.60;90.60
14798;DHT22;7490;63.708;20.368;2022-10-22T00:55:43;8.50;90.70
14798;DHT22;7490;63.708;20.368;2022-10-22T00:58:09;8.50;90.70
14798;DHT22;7490;63.708;20.368;2022-10-22T01:00:36;8.50;90.70
14798;DHT22;7490;63.708;20.368;2022-10-22T01:03:02;8.50;90.70
14798;DHT22;7490;63.708;20.368;2022-10-22T01:05:38;8.50;90.70
14798;DHT22;7490;63.708;20.368;2022-10-22T01:08:10;8.50;90.70
14798;DHT22;7490;63.708;20.368;2022-10-22T01:10:58;8.50;90.70
14798;DHT22;7490;63.708;20.368;2022-10-22T01:13:44;8.50;90.70
14798;DHT22;7490;63.708;20.368;2022-10-22T01:16:19;8.50;90.70
14798;DHT22;7490;63.708;20.368;2022-10-22T01:21:35;8.60;90.90
14798;DHT22;7490;63.708;20.368;2022-10-22T01:32:27;8.60;90.90
14798;DHT22;7490;63.708;20.368;2022-10-22T01:34:59;8.60;90.90
14798;DHT22;7490;63.708;20.368;2022-10-22T01:37:29;8.80;91.00
14798;DHT22;7490;63.708;20.368;2022-10-22T01:39:57;8.60;90.90
14798;DHT22;7490;63.708;20.368;2022-10-22T01:42:23;8.70;90.90
14798;DHT22;7490;63.708;20.368;2022-10-22T01:44:49;8.70;90.90
14798;DHT22;7490;63.708;20.368;2022-10-22T01:50:21;8.70;90.90
14798;DHT22;7490;63.708;20.368;2022-10-22T01:58:49;8.80;91.00
14798;DHT22;7490;63.708;20.368;2022-10-22T02:01:24;8.90;91.00
14798;DHT22;7490;63.708;20.368;2022-10-22T02:04:19;8.80;91.00
14798;DHT22;7490;63.708;20.368;2022-10-22T02:06:49;8.90;91.00
14798;DHT22;7490;63.708;20.368;2022-10-22T02:09:19;8.90;91.00
14798;DHT22;7490;63.708;20.368;2022-10-22T02:11:46;8.90;91.10
14798;DHT22;7490;63.708;20.368;2022-10-22T02:14:13;8.90;91.10
14798;DHT22;7490;63.708;20.368;2022-10-22T02:16:45;8.90;91.10
14798;DHT22;7490;63.708;20.368;2022-10-22T02:19:27;8.90;91.10
14798;DHT22;7490;63.708;20.368;2022-10-22T02:21:54;9.00;91.20
14798;DHT22;7490;63.708;20.368;2022-10-22T02:24:21;9.00;91.20
14798;DHT22;7490;63.708;20.368;2022-10-22T02:27:07;9.00;91.10
14798;DHT22;7490;63.708;20.368;2022-10-22T02:32:21;9.10;91.10
14798;DHT22;7490;63.708;20.368;2022-10-22T02:34:49;9.10;91.10
14798;DHT22;7490;63.708;20.368;2022-10-22T02:37:16;9.20;91.00
14798;DHT22;7490;63.708;20.368;2022-10-22T02:39:43;9.20;91.00
14798;DHT22;7490;63.708;20.368;2022-10-22T02:42:09;9.20;91.00
14798;DHT22;7490;63.708;20.368;2022-10-22T02:44:37;9.20;91.00
14798;DHT22;7490;63.708;20.368;2022-10-22T02:47:02;9.30;91.00
14798;DHT22;7490;63.708;20.368;2022-10-22T02:49:28;9.30;91.00
14798;DHT22;7490;63.708;20.368;2022-10-22T02:51:54;9.30;90.90
14798;DHT22;7490;63.708;20.368;2022-10-22T02:54:20;9.30;90.90
14798;DHT22;7490;63.708;20.368;2022-10-22T02:56:45;9.30;90.90
14798;DHT22;7490;63.708;20.368;2022-10-22T02:59:11;9.40;90.90
14798;DHT22;7490;63.708;20.368;2022-10-22T03:01:37;9.40;90.90
14798;DHT22;7490;63.708;20.368;2022-10-22T03:04:03;9.40;90.80
14798;DHT22;7490;63.708;20.368;2022-10-22T03:06:28;9.40;90.80
14798;DHT22;7490;63.708;20.368;2022-10-22T03:08:54;9.40;90.80
14798;DHT22;7490;63.708;20.368;2022-10-22T03:11:20;9.40;90.80
14798;DHT22;7490;63.708;20.368;2022-10-22T03:13:45;9.40;90.90
14798;DHT22;7490;63.708;20.368;2022-10-22T03:16:11;9.40;90.90
14798;DHT22;7490;63.708;20.368;2022-10-22T03:18:37;9.40;91.00
14798;DHT22;7490;63.708;20.368;2022-10-22T03:23:35;9.40;91.10
14798;DHT22;7490;63.708;20.368;2022-10-22T03:26:02;9.40;91.30
14798;DHT22;7490;63.708;20.368;2022-10-22T03:28:28;9.40;91.90
14798;DHT22;7490;63.708;20.368;2022-10-22T03:30:54;9.50;91.80
14798;DHT22;7490;63.708;20.368;2022-10-22T03:33:20;9.50;92.00
14798;DHT22;7490;63.708;20.368;2022-10-22T03:35:46;9.60;92.10
14798;DHT22;7490;63.708;20.368;2022-10-22T03:38:13;9.70;92.30
14798;DHT22;7490;63.708;20.368;2022-10-22T03:40:40;9.70;92.30
14798;DHT22;7490;63.708;20.368;2022-10-22T03:43:07;9.80;92.20
14798;DHT22;7490;63.708;20.368;2022-10-22T03:45:32;9.90;92.10
14798;DHT22;7490;63.708;20.368;2022-10-22T03:47:58;9.90;91.90
14798;DHT22;7490;63.708;20.368;2022-10-22T03:50:24;10.00;91.80
14798;DHT22;7490;63.708;20.368;2022-10-22T03:52:50;10.00;91.70
14798;DHT22;7490;63.708;20.368;2022-10-22T03:55:16;10.00;91.70
14798;DHT22;7490;63.708;20.368;2022-10-22T03:57:41;10.00;91.70
14798;DHT22;7490;63.708;20.368;2022-10-22T04:00:08;10.00;91.70
14798;DHT22;7490;63.708;20.368;2022-10-22T04:02:33;10.00;91.70
14798;DHT22;7490;63.708;20.368;2022-10-22T04:04:59;10.10;91.70
14798;DHT22;7490;63.708;20.368;2022-10-22T04:07:25;10.10;91.70
14798;DHT22;7490;63.708;20.368;2022-10-22T04:09:51;10.10;91.60
14798;DHT22;7490;63.708;20.368;2022-10-22T04:12:16;10.10;91.60
14798;DHT22;7490;63.708;20.368;2022-10-22T04:14:42;10.10;91.50
14798;DHT22;7490;63.708;20.368;2022-10-22T04:17:08;10.10;91.40
14798;DHT22;7490;63.708;20.368;2022-10-22T04:19:33;10.20;91.40
14798;DHT22;7490;63.708;20.368;2022-10-22T04:22:00;10.10;91.30
14798;DHT22;7490;63.708;20.368;2022-10-22T04:24:25;10.20;91.60
14798;DHT22;7490;63.708;20.368;2022-10-22T04:26:53;10.20;91.30
14798;DHT22;7490;63.708;20.368;2022-10-22T04:29:19;10.10;91.20
14798;DHT22;7490;63.708;20.368;2022-10-22T04:31:45;10.10;91.20
14798;DHT22;7490;63.708;20.368;2022-10-22T04:34:10;10.10;91.30
14798;DHT22;7490;63.708;20.368;2022-10-22T04:36:36;10.10;91.30
14798;DHT22;7490;63.708;20.368;2022-10-22T04:39:03;10.20;91.30
14798;DHT22;7490;63.708;20.368;2022-10-22T04:41:32;10.10;91.20
14798;DHT22;7490;63.708;20.368;2022-10-22T04:43:59;10.10;91.20
14798;DHT22;7490;63.708;20.368;2022-10-22T04:46:28;10.10;91.10
14798;DHT22;7490;63.708;20.368;2022-10-22T04:48:54;10.10;91.10
14798;DHT22;7490;63.708;20.368;2022-10-22T04:51:22;10.10;91.10
14798;DHT22;7490;63.708;20.368;2022-10-22T04:53:48;10.10;91.10
14798;DHT22;7490;63.708;20.368;2022-10-22T04:56:26;10.10;91.00
14798;DHT22;7490;63.708;20.368;2022-10-22T04:58:58;10.10;90.80
14798;DHT22;7490;63.708;20.368;2022-10-22T05:01:30;10.10;90.70
14798;DHT22;7490;63.708;20.368;2022-10-22T05:03:57;10.10;90.50
14798;DHT22;7490;63.708;20.368;2022-10-22T05:06:24;10.00;90.40
14798;DHT22;7490;63.708;20.368;2022-10-22T05:08:55;10.10;90.30
14798;DHT22;7490;63.708;20.368;2022-10-22T05:11:24;10.00;90.20
14798;DHT22;7490;63.708;20.368;2022-10-22T05:13:50;10.10;90.20
14798;DHT22;7490;63.708;20.368;2022-10-22T05:16:16;10.00;90.20
14798;DHT22;7490;63.708;20.368;2022-10-22T05:18:43;10.00;90.20
14798;DHT22;7490;63.708;20.368;2022-10-22T05:21:14;10.00;90.20
14798;DHT22;7490;63.708;20.368;2022-10-22T05:23:41;10.00;90.20
14798;DHT22;7490;63.708;20.368;2022-10-22T05:26:08;10.00;90.10
14798;DHT22;7490;63.708;20.368;2022-10-22T05:28:35;10.00;90.10
14798;DHT22;7490;63.708;20.368;2022-10-22T05:31:01;10.00;90.10
14798;DHT22;7490;63.708;20.368;2022-10-22T05:33:29;10.00;90.10
14798;DHT22;7490;63.708;20.368;2022-10-22T05:35:55;10.00;90.10
14798;DHT22;7490;63.708;20.368;2022-10-22T05:38:21;9.90;90.10
14798;DHT22;7490;63.708;20.368;2022-10-22T05:40:47;10.00;90.10
14798;DHT22;7490;63.708;20.368;2022-10-22T05:43:13;10.00;90.10
14798;DHT22;7490;63.708;20.368;2022-10-22T05:45:40;10.00;90.00
14798;DHT22;7490;63.708;20.368;2022-10-22T05:48:07;10.00;90.00
14798;DHT22;7490;63.708;20.368;2022-10-22T05:50:36;10.00;90.00
14798;DHT22;7490;63.708;20.368;2022-10-22T05:53:06;10.00;90.00
14798;DHT22;7490;63.708;20.368;2022-10-22T05:55:35;10.00;90.00
14798;DHT22;7490;63.708;20.368;2022-10-22T05:58:02;10.00;90.00
14798;DHT22;7490;63.708;20.368;2022-10-22T06:00:28;10.00;90.00
14798;DHT22;7490;63.708;20.368;2022-10-22T06:02:54;9.90;90.00
14798;DHT22;7490;63.708;20.368;2022-10-22T06:05:19;10.00;89.90
14798;DHT22;7490;63.708;20.368;2022-10-22T06:07:45;10.00;89.80
14798;DHT22;7490;63.708;20.368;2022-10-22T06:10:17;10.00;89.80
14798;DHT22;7490;63.708;20.368;2022-10-22T06:12:44;10.00;89.70
14798;DHT22;7490;63.708;20.368;2022-10-22T06:15:12;10.00;89.60
14798;DHT22;7490;63.708;20.368;2022-10-22T06:17:38;10.00;89.50
14798;DHT22;7490;63.708;20.368;2022-10-22T06:20:04;10.00;89.50
14798;DHT22;7490;63.708;20.368;2022-10-22T06:22:30;10.00;89.50
14798;DHT22;7490;63.708;20.368;2022-10-22T06:24:56;10.00;89.30
14798;DHT22;7490;63.708;20.368;2022-10-22T06:27:21;10.00;89.30
14798;DHT22;7490;63.708;20.368;2022-10-22T06:29:47;10.00;89.20
14798;DHT22;7490;63.708;20.368;2022-10-22T06:32:13;10.10;89.20
14798;DHT22;7490;63.708;20.368;2022-10-22T06:34:39;10.10;89.10
14798;DHT22;7490;63.708;20.368;2022-10-22T06:37:04;10.10;89.00
14798;DHT22;7490;63.708;20.368;2022-10-22T06:39:30;10.10;88.80
14798;DHT22;7490;63.708;20.368;2022-10-22T06:41:56;10.10;88.60
14798;DHT22;7490;63.708;20.368;2022-10-22T06:44:22;10.10;88.40
14798;DHT22;7490;63.708;20.368;2022-10-22T06:46:51;10.10;88.30
14798;DHT22;7490;63.708;20.368;2022-10-22T06:49:17;10.10;88.20
14798;DHT22;7490;63.708;20.368;2022-10-22T06:51:43;10.20;87.90
14798;DHT22;7490;63.708;20.368;2022-10-22T06:54:09;10.20;87.80
14798;DHT22;7490;63.708;20.368;2022-10-22T06:56:35;10.20;87.60
14798;DHT22;7490;63.708;20.368;2022-10-22T06:59:01;10.20;87.50
14798;DHT22;7490;63.708;20.368;2022-10-22T07:01:29;10.30;87.50
14798;DHT22;7490;63.708;20.368;2022-10-22T07:03:55;10.30;87.30
14798;DHT22;7490;63.708;20.368;2022-10-22T07:06:22;10.40;87.10
14798;DHT22;7490;63.708;20.368;2022-10-22T07:08:48;10.40;87.00
14798;DHT22;7490;63.708;20.368;2022-10-22T07:11:17;10.40;86.90
14798;DHT22;7490;63.708;20.368;2022-10-22T07:13:43;10.40;86.60
14798;DHT22;7490;63.708;20.368;2022-10-22T07:16:09;10.50;86.70
14798;DHT22;7490;63.708;20.368;2022-10-22T07:18:36;10.50;86.60
14798;DHT22;7490;63.708;20.368;2022-10-22T07:21:03;10.50;86.50
14798;DHT22;7490;63.708;20.368;2022-10-22T07:23:29;10.50;86.50
14798;DHT22;7490;63.708;20.368;2022-10-22T07:25:55;10.60;86.40
14798;DHT22;7490;63.708;20.368;2022-10-22T07:28:20;10.60;86.20
14798;DHT22;7490;63.708;20.368;2022-10-22T07:30:46;10.60;86.10
14798;DHT22;7490;63.708;20.368;2022-10-22T07:33:12;10.70;86.00
14798;DHT22;7490;63.708;20.368;2022-10-22T07:35:38;10.70;85.90
14798;DHT22;7490;63.708;20.368;2022-10-22T07:38:05;10.70;85.80
14798;DHT22;7490;63.708;20.368;2022-10-22T07:40:31;10.70;85.70
14798;DHT22;7490;63.708;20.368;2022-10-22T07:42:57;10.80;85.70
14798;DHT22;7490;63.708;20.368;2022-10-22T07:45:23;10.80;85.60
14798;DHT22;7490;63.708;20.368;2022-10-22T07:47:48;10.80;85.60
14798;DHT22;7490;63.708;20.368;2022-10-22T07:50:15;10.80;85.70
14798;DHT22;7490;63.708;20.368;2022-10-22T07:52:41;10.90;85.70
14798;DHT22;7490;63.708;20.368;2022-10-22T07:55:07;10.90;85.70
14798;DHT22;7490;63.708;20.368;2022-10-22T07:57:32;11.00;85.50
14798;DHT22;7490;63.708;20.368;2022-10-22T07:59:58;11.00;85.40
14798;DHT22;7490;63.708;20.368;2022-10-22T08:02:24;11.00;85.30
14798;DHT22;7490;63.708;20.368;2022-10-22T08:04:50;11.10;85.00
14798;DHT22;7490;63.708;20.368;2022-10-22T08:07:17;11.10;84.60
14798;DHT22;7490;63.708;20.368;2022-10-22T08:09:43;11.10;84.80
14798;DHT22;7490;63.708;20.368;2022-10-22T08:12:08;11.10;85.00
14798;DHT22;7490;63.708;20.368;2022-10-22T08:14:34;11.10;85.20
14798;DHT22;7490;63.708;20.368;2022-10-22T08:17:00;11.10;85.20
14798;DHT22;7490;63.708;20.368;2022-10-22T08:19:25;11.10;85.30
14798;DHT22;7490;63.708;20.368;2022-10-22T08:21:53;11.20;85.40
14798;DHT22;7490;63.708;20.368;2022-10-22T08:24:18;11.20;85.40
14798;DHT22;7490;63.708;20.368;2022-10-22T08:26:44;11.30;84.90
14798;DHT22;7490;63.708;20.368;2022-10-22T08:29:10;11.30;84.70
14798;DHT22;7490;63.708;20.368;2022-10-22T08:31:35;11.40;84.80
14798;DHT22;7490;63.708;20.368;2022-10-22T08:34:01;11.50;84.30
14798;DHT22;7490;63.708;20.368;2022-10-22T08:36:27;11.50;84.30
14798;DHT22;7490;63.708;20.368;2022-10-22T08:38:53;11.70;84.00
14798;DHT22;7490;63.708;20.368;2022-10-22T08:41:20;11.80;83.30
14798;DHT22;7490;63.708;20.368;2022-10-22T08:46:30;11.80;82.40
14798;DHT22;7490;63.708;20.368;2022-10-22T08:49:00;11.70;82.00
14798;DHT22;7490;63.708;20.368;2022-10-22T08:51:30;11.50;81.80
14798;DHT22;7490;63.708;20.368;2022-10-22T08:56:44;11.30;81.90
14798;DHT22;7490;63.708;20.368;2022-10-22T08:59:26;11.30;83.30
14798;DHT22;7490;63.708;20.368;2022-10-22T09:01:53;11.70;83.20
14798;DHT22;7490;63.708;20.368;2022-10-22T09:04:36;12.30;83.80
14798;DHT22;7490;63.708;20.368;2022-10-22T09:07:07;13.30;81.30
14798;DHT22;7490;63.708;20.368;2022-10-22T09:09:39;14.20;79.30
14798;DHT22;7490;63.708;20.368;2022-10-22T09:12:09;15.00;77.00
14798;DHT22;7490;63.708;20.368;2022-10-22T09:14:38;15.60;74.70
14798;DHT22;7490;63.708;20.368;2022-10-22T09:17:12;16.00;73.40
14798;DHT22;7490;63.708;20.368;2022-10-22T09:19:46;16.40;70.80
14798;DHT22;7490;63.708;20.368;2022-10-22T09:25:08;17.10;68.40
14798;DHT22;7490;63.708;20.368;2022-10-22T09:27:37;17.10;67.20
14798;DHT22;7490;63.708;20.368;2022-10-22T09:30:03;17.00;66.20
14798;DHT22;7490;63.708;20.368;2022-10-22T09:32:30;16.70;65.40
14798;DHT22;7490;63.708;20.368;2022-10-22T09:34:57;16.00;65.00
14798;DHT22;7490;63.708;20.368;2022-10-22T09:37:28;15.50;66.60
14798;DHT22;7490;63.708;20.368;2022-10-22T09:39:55;14.90;66.60
14798;DHT22;7490;63.708;20.368;2022-10-22T09:42:22;14.60;69.30
14798;DHT22;7490;63.708;20.368;2022-10-22T09:44:56;14.80;70.30
14798;DHT22;7490;63.708;20.368;2022-10-22T09:47:38;14.90;68.80
14798;DHT22;7490;63.708;20.368;2022-10-22T09:52:50;14.80;70.40
14798;DHT22;7490;63.708;20.368;2022-10-22T09:55:20;15.30;70.30
14798;DHT22;7490;63.708;20.368;2022-10-22T09:57:57;15.60;67.60
14798;DHT22;7490;63.708;20.368;2022-10-22T10:00:24;15.30;66.10
14798;DHT22;7490;63.708;20.368;2022-10-22T10:02:56;14.80;66.80
14798;DHT22;7490;63.708;20.368;2022-10-22T10:05:34;14.20;67.50
14798;DHT22;7490;63.708;20.368;2022-10-22T10:08:20;13.80;69.30
14798;DHT22;7490;63.708;20.368;2022-10-22T10:10:58;13.40;69.50
14798;DHT22;7490;63.708;20.368;2022-10-22T10:27:12;12.20;72.90
14798;DHT22;7490;63.708;20.368;2022-10-22T10:41:01;11.20;73.30
14798;DHT22;7490;63.708;20.368;2022-10-22T10:46:15;10.50;75.20
14798;DHT22;7490;63.708;20.368;2022-10-22T10:48:51;10.40;76.10
14798;DHT22;7490;63.708;20.368;2022-10-22T10:56:58;10.10;77.60
14798;DHT22;7490;63.708;20.368;2022-10-22T11:05:31;9.90;79.10
14798;DHT22;7490;63.708;20.368;2022-10-22T11:08:03;9.90;79.40
14798;DHT22;7490;63.708;20.368;2022-10-22T11:16:19;10.10;79.80
14798;DHT22;7490;63.708;20.368;2022-10-22T11:18:56;10.10;79.90
14798;DHT22;7490;63.708;20.368;2022-10-22T11:24:22;10.10;80.40
14798;DHT22;7490;63.708;20.368;2022-10-22T11:30:04;10.00;80.70
14798;DHT22;7490;63.708;20.368;2022-10-22T11:32:32;10.10;81.00
14798;DHT22;7490;63.708;20.368;2022-10-22T11:35:04;10.10;81.10
14798;DHT22;7490;63.708;20.368;2022-10-22T11:37:32;10.20;81.10
14798;DHT22;7490;63.708;20.368;2022-10-22T11:40:21;10.20;81.10
14798;DHT22;7490;63.708;20.368;2022-10-22T11:42:52;10.20;80.90
14798;DHT22;7490;63.708;20.368;2022-10-22T11:53:17;10.10;80.40
14798;DHT22;7490;63.708;20.368;2022-10-22T11:55:46;10.00;80.10
14798;DHT22;7490;63.708;20.368;2022-10-22T11:58:42;9.90;80.00
14798;DHT22;7490;63.708;20.368;2022-10-22T12:03:41;9.60;79.90
14798;DHT22;7490;63.708;20.368;2022-10-22T12:08:52;9.40;80.20
14798;DHT22;7490;63.708;20.368;2022-10-22T12:11:35;9.30;80.30
14798;DHT22;7490;63.708;20.368;2022-10-22T12:14:25;9.20;80.40
14798;DHT22;7490;63.708;20.368;2022-10-22T12:24:41;9.10;80.60
14798;DHT22;7490;63.708;20.368;2022-10-22T12:27:25;9.00;80.40
14798;DHT22;7490;63.708;20.368;2022-10-22T12:29:56;9.00;80.40
14798;DHT22;7490;63.708;20.368;2022-10-22T12:32:22;9.00;80.30
14798;DHT22;7490;63.708;20.368;2022-10-22T12:34:50;8.90;80.30
14798;DHT22;7490;63.708;20.368;2022-10-22T12:37:17;8.80;80.20
14798;DHT22;7490;63.708;20.368;2022-10-22T12:39:44;8.70;80.20
14798;DHT22;7490;63.708;20.368;2022-10-22T12:42:15;8.70;80.30
14798;DHT22;7490;63.708;20.368;2022-10-22T12:44:43;8.60;80.30
14798;DHT22;7490;63.708;20.368;2022-10-22T12:47:16;8.60;80.50
14798;DHT22;7490;63.708;20.368;2022-10-22T12:49:46;8.60;80.70
14798;DHT22;7490;63.708;20.368;2022-10-22T12:52:21;8.60;80.90
14798;DHT22;7490;63.708;20.368;2022-10-22T12:54:49;8.70;80.80
14798;DHT22;7490;63.708;20.368;2022-10-22T12:57:20;8.60;80.50
14798;DHT22;7490;63.708;20.368;2022-10-22T12:59:48;8.60;80.40
14798;DHT22;7490;63.708;20.368;2022-10-22T13:02:22;8.60;80.60
14798;DHT22;7490;63.708;20.368;2022-10-22T13:05:14;8.50;80.70
14798;DHT22;7490;63.708;20.368;2022-10-22T13:07:42;8.50;80.80
14798;DHT22;7490;63.708;20.368;2022-10-22T13:10:36;8.50;80.60
14798;DHT22;7490;63.708;20.368;2022-10-22T13:13:03;8.40;80.40
14798;DHT22;7490;63.708;20.368;2022-10-22T13:18:20;8.30;80.30
14798;DHT22;7490;63.708;20.368;2022-10-22T13:20:57;8.20;80.30
14798;DHT22;7490;63.708;20.368;2022-10-22T13:23:27;8.20;80.40
14798;DHT22;7490;63.708;20.368;2022-10-22T13:26:16;8.10;80.50
14798;DHT22;7490;63.708;20.368;2022-10-22T13:28:52;8.00;80.70
14798;DHT22;7490;63.708;20.368;2022-10-22T13:31:25;8.10;81.00
14798;DHT22;7490;63.708;20.368;2022-10-22T13:33:54;8.00;80.90
14798;DHT22;7490;63.708;20.368;2022-10-22T13:36:21;8.00;81.00
14798;DHT22;7490;63.708;20.368;2022-10-22T13:38:49;8.00;81.00
14798;DHT22;7490;63.708;20.368;2022-10-22T13:41:24;8.00;81.00
14798;DHT22;7490;63.708;20.368;2022-10-22T13:43:50;8.10;81.10
14798;DHT22;7490;63.708;20.368;2022-10-22T13:46:17;8.00;80.90
14798;DHT22;7490;63.708;20.368;2022-10-22T13:48:44;8.00;80.90
14798;DHT22;7490;63.708;20.368;2022-10-22T13:51:16;7.90;80.80
14798;DHT22;7490;63.708;20.368;2022-10-22T13:53:43;7.90;80.90
14798;DHT22;7490;63.708;20.368;2022-10-22T13:56:13;7.90;80.90
14798;DHT22;7490;63.708;20.368;2022-10-22T13:58:40;7.90;80.90
14798;DHT22;7490;63.708;20.368;2022-10-22T14:01:20;7.80;80.80
14798;DHT22;7490;63.708;20.368;2022-10-22T14:03:47;7.70;80.80
14798;DHT22;7490;63.708;20.368;2022-10-22T14:06:15;7.70;80.80
14798;DHT22;7490;63.708;20.368;2022-10-22T14:08:43;7.60;80.80
14798;DHT22;7490;63.708;20.368;2022-10-22T14:11:12;7.60;80.80
14798;DHT22;7490;63.708;20.368;2022-10-22T14:13:38;7.60;80.90
14798;DHT22;7490;63.708;20.368;2022-10-22T14:16:06;7.50;81.00
14798;DHT22;7490;63.708;20.368;2022-10-22T14:18:33;7.40;81.00
14798;DHT22;7490;63.708;20.368;2022-10-22T14:21:00;7.40;81.10
14798;DHT22;7490;63.708;20.368;2022-10-22T14:23:30;7.30;81.20
14798;DHT22;7490;63.708;20.368;2022-10-22T14:25:57;7.30;81.20
14798;DHT22;7490;63.708;20.368;2022-10-22T14:28:23;7.20;81.20
14798;DHT22;7490;63.708;20.368;2022-10-22T14:30:49;7.20;81.30
14798;DHT22;7490;63.708;20.368;2022-10-22T14:33:23;7.20;82.10
14798;DHT22;7490;63.708;20.368;2022-10-22T14:35:50;7.10;81.40
14798;DHT22;7490;63.708;20.368;2022-10-22T14:38:16;7.10;81.40
14798;DHT22;7490;63.708;20.368;2022-10-22T14:40:43;7.00;81.60
14798;DHT22;7490;63.708;20.368;2022-10-22T14:43:24;7.00;81.80
14798;DHT22;7490;63.708;20.368;2022-10-22T14:45:50;6.90;81.80
14798;DHT22;7490;63.708;20.368;2022-10-22T14:48:16;6.90;81.90
14798;DHT22;7490;63.708;20.368;2022-10-22T14:50:43;6.80;82.00
14798;DHT22;7490;63.708;20.368;2022-10-22T14:53:09;6.80;82.10
14798;DHT22;7490;63.708;20.368;2022-10-22T14:55:35;6.80;82.20
14798;DHT22;7490;63.708;20.368;2022-10-22T14:58:01;6.70;82.20
14798;DHT22;7490;63.708;20.368;2022-10-22T15:00:26;6.70;82.30
14798;DHT22;7490;63.708;20.368;2022-10-22T15:02:52;6.70;82.50
14798;DHT22;7490;63.708;20.368;2022-10-22T15:05:20;6.60;82.50
14798;DHT22;7490;63.708;20.368;2022-10-22T15:07:46;6.60;82.60
14798;DHT22;7490;63.708;20.368;2022-10-22T15:10:12;6.60;82.70
14798;DHT22;7490;63.708;20.368;2022-10-22T15:12:38;6.50;82.70
14798;DHT22;7490;63.708;20.368;2022-10-22T15:15:04;6.50;82.80
14798;DHT22;7490;63.708;20.368;2022-10-22T15:17:30;6.40;82.90
14798;DHT22;7490;63.708;20.368;2022-10-22T15:19:56;6.40;83.00
14798;DHT22;7490;63.708;20.368;2022-10-22T15:22:24;6.40;83.10
14798;DHT22;7490;63.708;20.368;2022-10-22T15:24:50;6.40;83.30
14798;DHT22;7490;63.708;20.368;2022-10-22T15:27:18;6.30;83.20
14798;DHT22;7490;63.708;20.368;2022-10-22T15:29:43;6.30;83.30
14798;DHT22;7490;63.708;20.368;2022-10-22T15:32:09;6.30;83.50
14798;DHT22;7490;63.708;20.368;2022-10-22T15:34:36;6.30;83.90
14798;DHT22;7490;63.708;20.368;2022-10-22T15:37:04;6.20;83.90
14798;DHT22;7490;63.708;20.368;2022-10-22T15:39:30;6.20;83.80
14798;DHT22;7490;63.708;20.368;2022-10-22T15:41:57;6.20;83.70
14798;DHT22;7490;63.708;20.368;2022-10-22T15:44:28;6.20;83.90
14798;DHT22;7490;63.708;20.368;2022-10-22T15:46:55;6.20;84.00
14798;DHT22;7490;63.708;20.368;2022-10-22T15:49:22;6.20;84.20
14798;DHT22;7490;63.708;20.368;2022-10-22T15:51:48;6.10;84.10
14798;DHT22;7490;63.708;20.368;2022-10-22T15:54:20;6.10;84.10
14798;DHT22;7490;63.708;20.368;2022-10-22T15:56:46;6.10;84.20
14798;DHT22;7490;63.708;20.368;2022-10-22T15:59:14;6.10;84.30
14798;DHT22;7490;63.708;20.368;2022-10-22T16:01:40;6.10;84.30
14798;DHT22;7490;63.708;20.368;2022-10-22T16:04:06;6.10;84.40
14798;DHT22;7490;63.708;20.368;2022-10-22T16:09:06;6.00;85.30
14798;DHT22;7490;63.708;20.368;2022-10-22T16:11:32;6.00;84.50
14798;DHT22;7490;63.708;20.368;2022-10-22T16:13:59;6.00;84.50
14798;DHT22;7490;63.708;20.368;2022-10-22T16:16:27;5.90;84.50
14798;DHT22;7490;63.708;20.368;2022-10-22T16:18:53;5.90;84.60
14798;DHT22;7490;63.708;20.368;2022-10-22T16:21:19;5.90;84.60
14798;DHT22;7490;63.708;20.368;2022-10-22T16:23:46;5.90;84.80
14798;DHT22;7490;63.708;20.368;2022-10-22T16:26:12;5.80;84.90
14798;DHT22;7490;63.708;20.368;2022-10-22T16:28:40;5.80;85.10
14798;DHT22;7490;63.708;20.368;2022-10-22T16:31:07;5.80;85.30
14798;DHT22;7490;63.708;20.368;2022-10-22T16:33:34;5.80;85.40
14798;DHT22;7490;63.708;20.368;2022-10-22T16:36:00;5.80;85.40
14798;DHT22;7490;63.708;20.368;2022-10-22T16:38:26;5.80;85.40
14798;DHT22;7490;63.708;20.368;2022-10-22T16:40:52;5.80;85.40
14798;DHT22;7490;63.708;20.368;2022-10-22T16:43:18;5.80;85.50
14798;DHT22;7490;63.708;20.368;2022-10-22T16:45:49;5.70;85.50
14798;DHT22;7490;63.708;20.368;2022-10-22T16:48:16;5.70;85.70
14798;DHT22;7490;63.708;20.368;2022-10-22T16:50:42;5.70;85.80
14798;DHT22;7490;63.708;20.368;2022-10-22T16:53:08;5.70;85.90
14798;DHT22;7490;63.708;20.368;2022-10-22T16:55:38;5.70;86.00
14798;DHT22;7490;63.708;20.368;2022-10-22T16:58:04;5.80;86.10
14798;DHT22;7490;63.708;20.368;2022-10-22T17:00:31;5.80;86.20
14798;DHT22;7490;63.708;20.368;2022-10-22T17:02:57;5.80;86.30
14798;DHT22;7490;63.708;20.368;2022-10-22T17:05:22;5.80;86.10
14798;DHT22;7490;63.708;20.368;2022-10-22T17:07:49;5.80;86.00
14798;DHT22;7490;63.708;20.368;2022-10-22T17:10:16;5.80;86.00
14798;DHT22;7490;63.708;20.368;2022-10-22T17:12:47;5.80;86.00
14798;DHT22;7490;63.708;20.368;2022-10-22T17:15:13;5.70;85.90
14798;DHT22;7490;63.708;20.368;2022-10-22T17:17:39;5.80;86.10
14798;DHT22;7490;63.708;20.368;2022-10-22T17:20:05;5.80;86.40
14798;DHT22;7490;63.708;20.368;2022-10-22T17:22:31;5.80;86.30
14798;DHT22;7490;63.708;20.368;2022-10-22T17:25:24;5.80;86.20
14798;DHT22;7490;63.708;20.368;2022-10-22T17:27:58;5.80;86.20
14798;DHT22;7490;63.708;20.368;2022-10-22T17:30:23;5.80;86.10
14798;DHT22;7490;63.708;20.368;2022-10-22T17:32:51;5.70;86.00
14798;DHT22;7490;63.708;20.368;2022-10-22T17:35:17;5.80;86.00
14798;DHT22;7490;63.708;20.368;2022-10-22T17:37:44;5.70;86.20
14798;DHT22;7490;63.708;20.368;2022-10-22T17:40:10;5.70;86.30
14798;DHT22;7490;63.708;20.368;2022-10-22T17:42:36;5.70;86.20
14798;DHT22;7490;63.708;20.368;2022-10-22T17:45:01;5.70;86.30
14798;DHT22;7490;63.708;20.368;2022-10-22T17:47:27;5.70;86.30